Crews, Texas
Current Conditions -  °F | °C
As of 6:58 AM on Thursday 23 Oct 2014 (Local Time) from KDYS Reporting Station
Overcast Overcast  
Wind Chill: 16°   Ceiling: 6500
Heat Index: 16°   Visibility: 10mi
Dew Point: 14°   Wind: 5mph
Humidity: 87%   Direction: 180°S
Pressure: 30.11"   Gusts: NA
Location:  31.975°N, 99.9034°W
Report Text: KDYS 231158Z AUTO 18004KT 10SM FEW046 OVC065 16/14 A3011 RMK AO2 SLP170 70002 T01600138 10162 20132 55002
Loading
Personal Weather Stations






























Interactive Weather Map
Tropical Storm Tracking
New forecast layout! Learn more

10-Day Weather Forecast

Advertisements
Track Severe Weather on mobile